sensor_id;sensor_type;location;lat;lon;timestamp;P1;durP1;ratioP1;P2;durP2;ratioP2
37657;SDS011;23500;53.268;8.308;2023-09-18T00:01:54;10.00;;;9.15;;
37657;SDS011;23500;53.268;8.308;2023-09-18T00:04:20;9.90;;;9.00;;
37657;SDS011;23500;53.268;8.308;2023-09-18T00:06:46;9.55;;;8.68;;
37657;SDS011;23500;53.268;8.308;2023-09-18T00:09:11;9.35;;;8.48;;
37657;SDS011;23500;53.268;8.308;2023-09-18T00:11:39;9.25;;;8.45;;
37657;SDS011;23500;53.268;8.308;2023-09-18T00:14:05;9.15;;;8.30;;
37657;SDS011;23500;53.268;8.308;2023-09-18T00:16:32;9.32;;;8.52;;
37657;SDS011;23500;53.268;8.308;2023-09-18T00:18:58;9.57;;;8.77;;
37657;SDS011;23500;53.268;8.308;2023-09-18T00:21:23;9.27;;;8.48;;
37657;SDS011;23500;53.268;8.308;2023-09-18T00:23:50;8.63;;;7.82;;
37657;SDS011;23500;53.268;8.308;2023-09-18T00:26:16;9.48;;;8.68;;
37657;SDS011;23500;53.268;8.308;2023-09-18T00:28:42;8.75;;;7.97;;
37657;SDS011;23500;53.268;8.308;2023-09-18T00:31:08;9.35;;;8.55;;
37657;SDS011;23500;53.268;8.308;2023-09-18T00:33:34;8.65;;;7.85;;
37657;SDS011;23500;53.268;8.308;2023-09-18T00:36:00;8.95;;;8.05;;
37657;SDS011;23500;53.268;8.308;2023-09-18T00:38:26;8.90;;;8.10;;
37657;SDS011;23500;53.268;8.308;2023-09-18T00:40:51;8.60;;;7.90;;
37657;SDS011;23500;53.268;8.308;2023-09-18T00:43:17;8.45;;;7.75;;
37657;SDS011;23500;53.268;8.308;2023-09-18T00:45:44;8.65;;;7.88;;
37657;SDS011;23500;53.268;8.308;2023-09-18T00:48:12;8.38;;;7.68;;
37657;SDS011;23500;53.268;8.308;2023-09-18T00:50:41;9.48;;;8.57;;
37657;SDS011;23500;53.268;8.308;2023-09-18T00:53:08;8.85;;;8.05;;
37657;SDS011;23500;53.268;8.308;2023-09-18T00:55:35;8.70;;;8.00;;
37657;SDS011;23500;53.268;8.308;2023-09-18T00:58:02;8.45;;;7.75;;
37657;SDS011;23500;53.268;8.308;2023-09-18T01:00:28;8.75;;;7.95;;
37657;SDS011;23500;53.268;8.308;2023-09-18T01:02:54;8.43;;;7.72;;
37657;SDS011;23500;53.268;8.308;2023-09-18T01:05:20;8.88;;;8.02;;
37657;SDS011;23500;53.268;8.308;2023-09-18T01:07:46;8.43;;;7.72;;
37657;SDS011;23500;53.268;8.308;2023-09-18T01:10:12;8.70;;;7.90;;
37657;SDS011;23500;53.268;8.308;2023-09-18T01:12:46;8.35;;;7.65;;
37657;SDS011;23500;53.268;8.308;2023-09-18T01:15:33;8.88;;;8.07;;
37657;SDS011;23500;53.268;8.308;2023-09-18T01:18:06;8.32;;;7.63;;
37657;SDS011;23500;53.268;8.308;2023-09-18T01:20:34;8.40;;;7.65;;
37657;SDS011;23500;53.268;8.308;2023-09-18T01:22:59;9.02;;;8.23;;
37657;SDS011;23500;53.268;8.308;2023-09-18T01:25:25;8.45;;;7.75;;
37657;SDS011;23500;53.268;8.308;2023-09-18T01:27:51;8.65;;;7.85;;
37657;SDS011;23500;53.268;8.308;2023-09-18T01:30:17;8.02;;;7.35;;
37657;SDS011;23500;53.268;8.308;2023-09-18T01:32:43;8.23;;;7.53;;
37657;SDS011;23500;53.268;8.308;2023-09-18T01:35:11;8.55;;;7.75;;
37657;SDS011;23500;53.268;8.308;2023-09-18T01:37:38;8.50;;;7.80;;
37657;SDS011;23500;53.268;8.308;2023-09-18T01:40:05;8.70;;;8.00;;
37657;SDS011;23500;53.268;8.308;2023-09-18T01:42:32;7.80;;;7.20;;
37657;SDS011;23500;53.268;8.308;2023-09-18T01:44:59;8.20;;;7.50;;
37657;SDS011;23500;53.268;8.308;2023-09-18T01:47:25;8.20;;;7.50;;
37657;SDS011;23500;53.268;8.308;2023-09-18T01:49:54;8.75;;;7.95;;
37657;SDS011;23500;53.268;8.308;2023-09-18T01:52:19;8.70;;;7.90;;
37657;SDS011;23500;53.268;8.308;2023-09-18T01:54:45;8.60;;;7.88;;
37657;SDS011;23500;53.268;8.308;2023-09-18T01:57:11;8.52;;;7.78;;
37657;SDS011;23500;53.268;8.308;2023-09-18T01:59:37;8.88;;;8.07;;
37657;SDS011;23500;53.268;8.308;2023-09-18T02:02:03;8.57;;;7.82;;
37657;SDS011;23500;53.268;8.308;2023-09-18T02:04:31;8.23;;;7.53;;
37657;SDS011;23500;53.268;8.308;2023-09-18T02:06:57;7.60;;;7.00;;
37657;SDS011;23500;53.268;8.308;2023-09-18T02:09:23;8.27;;;7.57;;
37657;SDS011;23500;53.268;8.308;2023-09-18T02:11:49;7.85;;;7.25;;
37657;SDS011;23500;53.268;8.308;2023-09-18T02:14:14;8.52;;;7.82;;
37657;SDS011;23500;53.268;8.308;2023-09-18T02:16:41;8.18;;;7.47;;
37657;SDS011;23500;53.268;8.308;2023-09-18T02:19:11;8.63;;;7.82;;
37657;SDS011;23500;53.268;8.308;2023-09-18T02:21:38;7.35;;;6.75;;
37657;SDS011;23500;53.268;8.308;2023-09-18T02:24:05;8.30;;;7.50;;
37657;SDS011;23500;53.268;8.308;2023-09-18T02:26:31;8.35;;;7.55;;
37657;SDS011;23500;53.268;8.308;2023-09-18T02:29:00;8.30;;;7.45;;
37657;SDS011;23500;53.268;8.308;2023-09-18T02:31:28;7.60;;;7.00;;
37657;SDS011;23500;53.268;8.308;2023-09-18T02:33:54;8.05;;;7.35;;
37657;SDS011;23500;53.268;8.308;2023-09-18T02:36:19;7.60;;;7.00;;
37657;SDS011;23500;53.268;8.308;2023-09-18T02:38:45;8.07;;;7.38;;
37657;SDS011;23500;53.268;8.308;2023-09-18T02:41:10;7.45;;;6.85;;
37657;SDS011;23500;53.268;8.308;2023-09-18T02:43:36;8.35;;;7.70;;
37657;SDS011;23500;53.268;8.308;2023-09-18T02:46:05;7.90;;;7.28;;
37657;SDS011;23500;53.268;8.308;2023-09-18T02:48:31;8.02;;;7.40;;
37657;SDS011;23500;53.268;8.308;2023-09-18T02:50:58;8.23;;;7.53;;
37657;SDS011;23500;53.268;8.308;2023-09-18T02:53:25;8.02;;;7.32;;
37657;SDS011;23500;53.268;8.308;2023-09-18T02:55:51;8.00;;;7.30;;
37657;SDS011;23500;53.268;8.308;2023-09-18T02:58:18;8.05;;;7.35;;
37657;SDS011;23500;53.268;8.308;2023-09-18T03:00:45;7.40;;;6.70;;
37657;SDS011;23500;53.268;8.308;2023-09-18T03:03:12;7.78;;;7.18;;
37657;SDS011;23500;53.268;8.308;2023-09-18T03:05:38;8.07;;;7.45;;
37657;SDS011;23500;53.268;8.308;2023-09-18T03:08:05;7.82;;;7.22;;
37657;SDS011;23500;53.268;8.308;2023-09-18T03:10:37;7.68;;;7.07;;
37657;SDS011;23500;53.268;8.308;2023-09-18T03:13:04;7.68;;;7.07;;
37657;SDS011;23500;53.268;8.308;2023-09-18T03:15:31;8.20;;;7.50;;
37657;SDS011;23500;53.268;8.308;2023-09-18T03:17:57;7.82;;;7.22;;
37657;SDS011;23500;53.268;8.308;2023-09-18T03:20:24;7.43;;;6.82;;
37657;SDS011;23500;53.268;8.308;2023-09-18T03:22:51;7.78;;;7.07;;
37657;SDS011;23500;53.268;8.308;2023-09-18T03:25:17;7.75;;;7.15;;
37657;SDS011;23500;53.268;8.308;2023-09-18T03:27:43;7.50;;;6.63;;
37657;SDS011;23500;53.268;8.308;2023-09-18T03:30:09;7.68;;;7.07;;
37657;SDS011;23500;53.268;8.308;2023-09-18T03:32:37;6.95;;;6.35;;
37657;SDS011;23500;53.268;8.308;2023-09-18T03:35:03;7.53;;;6.85;;
37657;SDS011;23500;53.268;8.308;2023-09-18T03:37:29;7.95;;;7.28;;
37657;SDS011;23500;53.268;8.308;2023-09-18T03:39:55;7.53;;;6.93;;
37657;SDS011;23500;53.268;8.308;2023-09-18T03:42:21;8.13;;;7.43;;
37657;SDS011;23500;53.268;8.308;2023-09-18T03:44:47;7.75;;;6.95;;
37657;SDS011;23500;53.268;8.308;2023-09-18T03:47:12;7.40;;;6.80;;
37657;SDS011;23500;53.268;8.308;2023-09-18T03:49:38;7.88;;;7.18;;
37657;SDS011;23500;53.268;8.308;2023-09-18T03:52:03;7.22;;;6.63;;
37657;SDS011;23500;53.268;8.308;2023-09-18T03:54:29;7.57;;;6.90;;
37657;SDS011;23500;53.268;8.308;2023-09-18T03:56:55;6.95;;;6.35;;
37657;SDS011;23500;53.268;8.308;2023-09-18T03:59:20;7.40;;;6.80;;
37657;SDS011;23500;53.268;8.308;2023-09-18T04:01:46;7.50;;;6.85;;
37657;SDS011;23500;53.268;8.308;2023-09-18T04:04:12;7.30;;;6.70;;
37657;SDS011;23500;53.268;8.308;2023-09-18T04:06:40;7.35;;;6.70;;
37657;SDS011;23500;53.268;8.308;2023-09-18T04:09:06;6.68;;;6.18;;
37657;SDS011;23500;53.268;8.308;2023-09-18T04:11:32;7.90;;;7.10;;
37657;SDS011;23500;53.268;8.308;2023-09-18T04:13:58;7.50;;;6.90;;
37657;SDS011;23500;53.268;8.308;2023-09-18T04:16:25;6.72;;;5.90;;
37657;SDS011;23500;53.268;8.308;2023-09-18T04:18:53;7.15;;;6.53;;
37657;SDS011;23500;53.268;8.308;2023-09-18T04:21:19;7.38;;;6.78;;
37657;SDS011;23500;53.268;8.308;2023-09-18T04:23:46;6.85;;;6.25;;
37657;SDS011;23500;53.268;8.308;2023-09-18T04:26:12;7.05;;;6.25;;
37657;SDS011;23500;53.268;8.308;2023-09-18T04:28:40;6.30;;;5.57;;
37657;SDS011;23500;53.268;8.308;2023-09-18T04:31:06;10.90;;;6.65;;
37657;SDS011;23500;53.268;8.308;2023-09-18T04:33:32;15.68;;;7.97;;
37657;SDS011;23500;53.268;8.308;2023-09-18T04:35:58;18.42;;;9.57;;
37657;SDS011;23500;53.268;8.308;2023-09-18T04:38:24;117.55;;;31.33;;
37657;SDS011;23500;53.268;8.308;2023-09-18T04:40:49;40.85;;;13.30;;
37657;SDS011;23500;53.268;8.308;2023-09-18T04:43:23;50.90;;;14.65;;
37657;SDS011;23500;53.268;8.308;2023-09-18T04:45:49;54.30;;;17.25;;
37657;SDS011;23500;53.268;8.308;2023-09-18T04:48:15;41.33;;;15.10;;
37657;SDS011;23500;53.268;8.308;2023-09-18T04:50:41;56.67;;;18.95;;
37657;SDS011;23500;53.268;8.308;2023-09-18T04:53:08;30.02;;;12.00;;
37657;SDS011;23500;53.268;8.308;2023-09-18T04:55:33;68.10;;;21.35;;
37657;SDS011;23500;53.268;8.308;2023-09-18T04:57:59;39.50;;;15.07;;
37657;SDS011;23500;53.268;8.308;2023-09-18T05:00:25;73.53;;;22.10;;
37657;SDS011;23500;53.268;8.308;2023-09-18T05:02:52;77.60;;;24.05;;
37657;SDS011;23500;53.268;8.308;2023-09-18T05:05:18;52.72;;;20.00;;
37657;SDS011;23500;53.268;8.308;2023-09-18T05:07:44;56.30;;;19.60;;
37657;SDS011;23500;53.268;8.308;2023-09-18T05:10:09;51.25;;;19.05;;
37657;SDS011;23500;53.268;8.308;2023-09-18T05:12:37;58.00;;;17.88;;
37657;SDS011;23500;53.268;8.308;2023-09-18T05:15:04;43.90;;;16.30;;
37657;SDS011;23500;53.268;8.308;2023-09-18T05:17:40;39.35;;;15.13;;
37657;SDS011;23500;53.268;8.308;2023-09-18T05:20:08;31.67;;;12.82;;
37657;SDS011;23500;53.268;8.308;2023-09-18T05:22:37;29.67;;;13.82;;
37657;SDS011;23500;53.268;8.308;2023-09-18T05:25:02;26.60;;;13.70;;
37657;SDS011;23500;53.268;8.308;2023-09-18T05:27:29;18.10;;;10.25;;
37657;SDS011;23500;53.268;8.308;2023-09-18T05:29:55;23.25;;;10.70;;
37657;SDS011;23500;53.268;8.308;2023-09-18T05:32:20;25.70;;;11.77;;
37657;SDS011;23500;53.268;8.308;2023-09-18T05:34:46;18.67;;;10.40;;
37657;SDS011;23500;53.268;8.308;2023-09-18T05:37:12;16.42;;;10.00;;
37657;SDS011;23500;53.268;8.308;2023-09-18T05:39:38;15.55;;;9.98;;
37657;SDS011;23500;53.268;8.308;2023-09-18T05:42:03;16.95;;;9.75;;
37657;SDS011;23500;53.268;8.308;2023-09-18T05:44:29;14.40;;;9.25;;
37657;SDS011;23500;53.268;8.308;2023-09-18T05:46:55;20.30;;;10.77;;
37657;SDS011;23500;53.268;8.308;2023-09-18T05:49:21;20.88;;;10.48;;
37657;SDS011;23500;53.268;8.308;2023-09-18T05:51:47;18.73;;;10.43;;
37657;SDS011;23500;53.268;8.308;2023-09-18T05:54:13;19.25;;;10.40;;
37657;SDS011;23500;53.268;8.308;2023-09-18T05:56:39;11.32;;;9.27;;
37657;SDS011;23500;53.268;8.308;2023-09-18T05:59:05;14.13;;;10.03;;
37657;SDS011;23500;53.268;8.308;2023-09-18T06:01:31;14.57;;;8.95;;
37657;SDS011;23500;53.268;8.308;2023-09-18T06:03:58;14.60;;;8.98;;
37657;SDS011;23500;53.268;8.308;2023-09-18T06:06:23;15.82;;;8.90;;
37657;SDS011;23500;53.268;8.308;2023-09-18T06:08:50;12.68;;;8.02;;
37657;SDS011;23500;53.268;8.308;2023-09-18T09:29:09;11.90;;;6.97;;
37657;SDS011;23500;53.268;8.308;2023-09-18T09:31:44;9.05;;;7.38;;
37657;SDS011;23500;53.268;8.308;2023-09-18T09:34:10;11.07;;;6.65;;
37657;SDS011;23500;53.268;8.308;2023-09-18T09:36:38;7.30;;;6.57;;
37657;SDS011;23500;53.268;8.308;2023-09-18T09:39:17;7.75;;;6.68;;
37657;SDS011;23500;53.268;8.308;2023-09-18T09:41:45;10.70;;;6.57;;
37657;SDS011;23500;53.268;8.308;2023-09-18T09:44:12;13.18;;;6.88;;
37657;SDS011;23500;53.268;8.308;2023-09-18T09:46:45;11.55;;;7.15;;
37657;SDS011;23500;53.268;8.308;2023-09-18T09:49:14;7.97;;;6.65;;
37657;SDS011;23500;53.268;8.308;2023-09-18T09:51:42;7.05;;;6.40;;
37657;SDS011;23500;53.268;8.308;2023-09-18T09:54:08;7.70;;;6.22;;
37657;SDS011;23500;53.268;8.308;2023-09-18T09:59:11;7.35;;;6.57;;
37657;SDS011;23500;53.268;8.308;2023-09-18T10:01:38;9.05;;;6.32;;
37657;SDS011;23500;53.268;8.308;2023-09-18T10:04:08;7.35;;;6.15;;
37657;SDS011;23500;53.268;8.308;2023-09-18T10:06:39;7.05;;;6.32;;
37657;SDS011;23500;53.268;8.308;2023-09-18T10:09:09;6.15;;;5.47;;
37657;SDS011;23500;53.268;8.308;2023-09-18T10:11:40;7.93;;;6.30;;
37657;SDS011;23500;53.268;8.308;2023-09-18T10:14:14;8.40;;;5.97;;
37657;SDS011;23500;53.268;8.308;2023-09-18T10:16:44;12.90;;;7.78;;
37657;SDS011;23500;53.268;8.308;2023-09-18T10:24:36;13.10;;;6.85;;
37657;SDS011;23500;53.268;8.308;2023-09-18T10:27:06;12.10;;;6.22;;
37657;SDS011;23500;53.268;8.308;2023-09-18T10:29:34;10.15;;;6.35;;
37657;SDS011;23500;53.268;8.308;2023-09-18T10:32:06;13.25;;;6.78;;
37657;SDS011;23500;53.268;8.308;2023-09-18T10:34:33;18.73;;;7.20;;
37657;SDS011;23500;53.268;8.308;2023-09-18T10:37:00;13.40;;;7.45;;
37657;SDS011;23500;53.268;8.308;2023-09-18T10:39:32;19.27;;;7.38;;
37657;SDS011;23500;53.268;8.308;2023-09-18T10:42:01;13.63;;;6.90;;
37657;SDS011;23500;53.268;8.308;2023-09-18T10:44:29;13.93;;;8.45;;
37657;SDS011;23500;53.268;8.308;2023-09-18T10:46:56;14.60;;;7.43;;
37657;SDS011;23500;53.268;8.308;2023-09-18T10:49:24;15.68;;;7.22;;
37657;SDS011;23500;53.268;8.308;2023-09-18T10:51:53;12.93;;;7.20;;
37657;SDS011;23500;53.268;8.308;2023-09-18T10:54:21;14.60;;;7.03;;
37657;SDS011;23500;53.268;8.308;2023-09-18T10:56:48;10.70;;;7.30;;
37657;SDS011;23500;53.268;8.308;2023-09-18T10:59:14;15.68;;;7.30;;
37657;SDS011;23500;53.268;8.308;2023-09-18T11:01:41;12.15;;;6.65;;
37657;SDS011;23500;53.268;8.308;2023-09-18T11:04:07;13.02;;;6.35;;
37657;SDS011;23500;53.268;8.308;2023-09-18T11:09:22;12.20;;;5.78;;
37657;SDS011;23500;53.268;8.308;2023-09-18T11:11:52;9.90;;;6.18;;
37657;SDS011;23500;53.268;8.308;2023-09-18T11:14:23;14.48;;;7.05;;
37657;SDS011;23500;53.268;8.308;2023-09-18T11:20:09;9.15;;;6.38;;
37657;SDS011;23500;53.268;8.308;2023-09-18T11:22:57;9.48;;;6.15;;
37657;SDS011;23500;53.268;8.308;2023-09-18T11:28:02;10.02;;;6.18;;
37657;SDS011;23500;53.268;8.308;2023-09-18T11:30:32;12.45;;;6.70;;
37657;SDS011;23500;53.268;8.308;2023-09-18T11:33:01;11.38;;;6.10;;
37657;SDS011;23500;53.268;8.308;2023-09-18T11:35:34;9.63;;;6.00;;
37657;SDS011;23500;53.268;8.308;2023-09-18T11:38:03;10.38;;;5.57;;
37657;SDS011;23500;53.268;8.308;2023-09-18T11:40:34;12.38;;;6.15;;
37657;SDS011;23500;53.268;8.308;2023-09-18T11:43:22;9.95;;;5.82;;
37657;SDS011;23500;53.268;8.308;2023-09-18T11:45:55;7.75;;;5.60;;
37657;SDS011;23500;53.268;8.308;2023-09-18T11:48:23;7.72;;;5.60;;
37657;SDS011;23500;53.268;8.308;2023-09-18T11:50:53;8.38;;;5.68;;
37657;SDS011;23500;53.268;8.308;2023-09-18T11:53:19;9.10;;;5.70;;
37657;SDS011;23500;53.268;8.308;2023-09-18T11:55:45;7.57;;;5.32;;
37657;SDS011;23500;53.268;8.308;2023-09-18T11:58:12;7.97;;;5.40;;
37657;SDS011;23500;53.268;8.308;2023-09-18T12:00:38;9.68;;;5.43;;
37657;SDS011;23500;53.268;8.308;2023-09-18T12:05:43;6.32;;;5.35;;
37657;SDS011;23500;53.268;8.308;2023-09-18T12:08:10;6.85;;;5.30;;
37657;SDS011;23500;53.268;8.308;2023-09-18T12:10:36;7.07;;;4.68;;
37657;SDS011;23500;53.268;8.308;2023-09-18T12:13:06;8.93;;;5.30;;
37657;SDS011;23500;53.268;8.308;2023-09-18T12:15:33;8.88;;;5.47;;
37657;SDS011;23500;53.268;8.308;2023-09-18T12:18:06;7.38;;;5.30;;
37657;SDS011;23500;53.268;8.308;2023-09-18T12:20:33;8.40;;;4.75;;
37657;SDS011;23500;53.268;8.308;2023-09-18T12:22:59;10.70;;;5.15;;
37657;SDS011;23500;53.268;8.308;2023-09-18T12:25:25;6.35;;;4.72;;
37657;SDS011;23500;53.268;8.308;2023-09-18T12:27:52;7.05;;;4.80;;
37657;SDS011;23500;53.268;8.308;2023-09-18T12:30:18;6.20;;;4.78;;
37657;SDS011;23500;53.268;8.308;2023-09-18T12:32:46;8.20;;;4.55;;
37657;SDS011;23500;53.268;8.308;2023-09-18T12:35:14;8.10;;;5.13;;
37657;SDS011;23500;53.268;8.308;2023-09-18T12:37:41;12.77;;;4.65;;
37657;SDS011;23500;53.268;8.308;2023-09-18T12:40:08;8.02;;;4.38;;
37657;SDS011;23500;53.268;8.308;2023-09-18T12:42:50;9.48;;;5.00;;
37657;SDS011;23500;53.268;8.308;2023-09-18T12:45:16;14.73;;;5.05;;
37657;SDS011;23500;53.268;8.308;2023-09-18T12:47:42;6.55;;;4.18;;
37657;SDS011;23500;53.268;8.308;2023-09-18T12:50:09;8.10;;;4.65;;
37657;SDS011;23500;53.268;8.308;2023-09-18T12:52:38;7.70;;;4.57;;
37657;SDS011;23500;53.268;8.308;2023-09-18T12:55:04;9.50;;;4.50;;
37657;SDS011;23500;53.268;8.308;2023-09-18T12:57:31;6.72;;;3.92;;
37657;SDS011;23500;53.268;8.308;2023-09-18T12:59:58;6.50;;;4.13;;
37657;SDS011;23500;53.268;8.308;2023-09-18T13:02:24;7.47;;;4.10;;
37657;SDS011;23500;53.268;8.308;2023-09-18T13:04:51;10.05;;;4.13;;
37657;SDS011;23500;53.268;8.308;2023-09-18T13:07:18;7.72;;;3.92;;
37657;SDS011;23500;53.268;8.308;2023-09-18T13:09:57;9.20;;;3.90;;
37657;SDS011;23500;53.268;8.308;2023-09-18T13:12:25;5.32;;;3.63;;
37657;SDS011;23500;53.268;8.308;2023-09-18T13:15:04;7.15;;;3.78;;
37657;SDS011;23500;53.268;8.308;2023-09-18T13:17:46;9.63;;;4.18;;
37657;SDS011;23500;53.268;8.308;2023-09-18T13:20:13;6.07;;;3.03;;
37657;SDS011;23500;53.268;8.308;2023-09-18T13:22:41;7.10;;;3.70;;
37657;SDS011;23500;53.268;8.308;2023-09-18T13:25:08;18.63;;;4.43;;
37657;SDS011;23500;53.268;8.308;2023-09-18T13:27:36;11.80;;;4.05;;
37657;SDS011;23500;53.268;8.308;2023-09-18T13:30:03;9.77;;;3.60;;
37657;SDS011;23500;53.268;8.308;2023-09-18T13:32:35;8.82;;;3.50;;
37657;SDS011;23500;53.268;8.308;2023-09-18T13:35:04;7.72;;;3.50;;
37657;SDS011;23500;53.268;8.308;2023-09-18T13:37:34;9.65;;;3.42;;
37657;SDS011;23500;53.268;8.308;2023-09-18T13:40:00;9.88;;;3.80;;
37657;SDS011;23500;53.268;8.308;2023-09-18T13:42:28;8.77;;;3.35;;
37657;SDS011;23500;53.268;8.308;2023-09-18T13:44:58;7.85;;;3.83;;
37657;SDS011;23500;53.268;8.308;2023-09-18T13:47:26;10.93;;;3.50;;
37657;SDS011;23500;53.268;8.308;2023-09-18T13:49:52;7.60;;;3.80;;
37657;SDS011;23500;53.268;8.308;2023-09-18T13:52:21;8.43;;;3.28;;
37657;SDS011;23500;53.268;8.308;2023-09-18T13:54:48;7.18;;;3.45;;
37657;SDS011;23500;53.268;8.308;2023-09-18T13:57:19;6.93;;;3.10;;
37657;SDS011;23500;53.268;8.308;2023-09-18T13:59:45;5.72;;;3.50;;
37657;SDS011;23500;53.268;8.308;2023-09-18T14:02:15;8.32;;;3.38;;
37657;SDS011;23500;53.268;8.308;2023-09-18T14:04:42;5.93;;;3.05;;
37657;SDS011;23500;53.268;8.308;2023-09-18T14:07:08;7.63;;;3.08;;
37657;SDS011;23500;53.268;8.308;2023-09-18T14:09:34;10.25;;;3.15;;
37657;SDS011;23500;53.268;8.308;2023-09-18T14:12:03;6.00;;;3.20;;
37657;SDS011;23500;53.268;8.308;2023-09-18T14:14:32;9.45;;;3.25;;
37657;SDS011;23500;53.268;8.308;2023-09-18T14:16:59;6.95;;;3.33;;
37657;SDS011;23500;53.268;8.308;2023-09-18T14:19:24;5.80;;;3.00;;
37657;SDS011;23500;53.268;8.308;2023-09-18T14:21:50;5.10;;;2.90;;
37657;SDS011;23500;53.268;8.308;2023-09-18T14:24:17;7.68;;;3.20;;
37657;SDS011;23500;53.268;8.308;2023-09-18T14:26:47;7.55;;;3.03;;
37657;SDS011;23500;53.268;8.308;2023-09-18T14:29:14;4.57;;;3.20;;
37657;SDS011;23500;53.268;8.308;2023-09-18T14:31:40;5.30;;;2.72;;
37657;SDS011;23500;53.268;8.308;2023-09-18T14:34:06;5.20;;;2.90;;
37657;SDS011;23500;53.268;8.308;2023-09-18T14:36:33;9.73;;;3.30;;
37657;SDS011;23500;53.268;8.308;2023-09-18T14:38:59;5.20;;;3.05;;
37657;SDS011;23500;53.268;8.308;2023-09-18T14:41:26;9.40;;;3.13;;
37657;SDS011;23500;53.268;8.308;2023-09-18T14:43:52;6.85;;;2.88;;
37657;SDS011;23500;53.268;8.308;2023-09-18T14:46:18;7.22;;;3.50;;
37657;SDS011;23500;53.268;8.308;2023-09-18T14:48:45;4.57;;;2.83;;
37657;SDS011;23500;53.268;8.308;2023-09-18T14:51:11;9.48;;;3.22;;
37657;SDS011;23500;53.268;8.308;2023-09-18T14:53:37;6.65;;;3.15;;
37657;SDS011;23500;53.268;8.308;2023-09-18T14:56:03;7.80;;;3.42;;
37657;SDS011;23500;53.268;8.308;2023-09-18T14:58:31;8.05;;;3.50;;
37657;SDS011;23500;53.268;8.308;2023-09-18T15:00:57;8.82;;;3.33;;
37657;SDS011;23500;53.268;8.308;2023-09-18T15:03:23;11.05;;;3.20;;
37657;SDS011;23500;53.268;8.308;2023-09-18T15:05:52;10.68;;;3.67;;
37657;SDS011;23500;53.268;8.308;2023-09-18T15:08:18;9.75;;;3.75;;
37657;SDS011;23500;53.268;8.308;2023-09-18T15:10:48;7.80;;;3.42;;
37657;SDS011;23500;53.268;8.308;2023-09-18T15:13:14;11.40;;;3.90;;
37657;SDS011;23500;53.268;8.308;2023-09-18T15:15:40;10.30;;;3.40;;
37657;SDS011;23500;53.268;8.308;2023-09-18T15:18:06;9.43;;;3.85;;
37657;SDS011;23500;53.268;8.308;2023-09-18T15:20:33;8.40;;;3.15;;
37657;SDS011;23500;53.268;8.308;2023-09-18T15:22:59;10.95;;;3.25;;
37657;SDS011;23500;53.268;8.308;2023-09-18T15:25:25;10.27;;;3.50;;
37657;SDS011;23500;53.268;8.308;2023-09-18T15:27:51;12.82;;;3.90;;
37657;SDS011;23500;53.268;8.308;2023-09-18T15:30:16;11.95;;;3.47;;
37657;SDS011;23500;53.268;8.308;2023-09-18T15:35:24;10.65;;;3.28;;
37657;SDS011;23500;53.268;8.308;2023-09-18T15:37:51;11.23;;;3.35;;
37657;SDS011;23500;53.268;8.308;2023-09-18T15:40:18;8.32;;;3.50;;
37657;SDS011;23500;53.268;8.308;2023-09-18T15:42:46;10.57;;;3.53;;
37657;SDS011;23500;53.268;8.308;2023-09-18T15:45:12;10.07;;;3.88;;
37657;SDS011;23500;53.268;8.308;2023-09-18T15:47:39;8.50;;;3.60;;
37657;SDS011;23500;53.268;8.308;2023-09-18T15:50:07;14.15;;;3.72;;
37657;SDS011;23500;53.268;8.308;2023-09-18T15:52:34;11.25;;;3.58;;
37657;SDS011;23500;53.268;8.308;2023-09-18T15:55:00;9.77;;;3.65;;
37657;SDS011;23500;53.268;8.308;2023-09-18T15:57:26;16.65;;;5.20;;
37657;SDS011;23500;53.268;8.308;2023-09-18T15:59:53;11.75;;;3.92;;
37657;SDS011;23500;53.268;8.308;2023-09-18T16:02:20;15.70;;;4.43;;
37657;SDS011;23500;53.268;8.308;2023-09-18T16:04:48;10.57;;;4.38;;
37657;SDS011;23500;53.268;8.308;2023-09-18T16:07:14;11.45;;;3.92;;
37657;SDS011;23500;53.268;8.308;2023-09-18T16:09:42;12.98;;;4.30;;
37657;SDS011;23500;53.268;8.308;2023-09-18T16:12:07;11.50;;;4.28;;
37657;SDS011;23500;53.268;8.308;2023-09-18T16:14:34;9.63;;;4.28;;
37657;SDS011;23500;53.268;8.308;2023-09-18T16:17:00;15.43;;;4.30;;
37657;SDS011;23500;53.268;8.308;2023-09-18T16:19:32;9.20;;;3.85;;
37657;SDS011;23500;53.268;8.308;2023-09-18T16:21:58;12.98;;;4.00;;
37657;SDS011;23500;53.268;8.308;2023-09-18T16:24:25;8.48;;;3.40;;
37657;SDS011;23500;53.268;8.308;2023-09-18T16:26:54;12.85;;;4.05;;
37657;SDS011;23500;53.268;8.308;2023-09-18T16:29:23;8.95;;;3.50;;
37657;SDS011;23500;53.268;8.308;2023-09-18T16:31:50;8.45;;;3.65;;
37657;SDS011;23500;53.268;8.308;2023-09-18T16:34:16;11.80;;;4.13;;
37657;SDS011;23500;53.268;8.308;2023-09-18T16:36:42;11.48;;;3.72;;
37657;SDS011;23500;53.268;8.308;2023-09-18T16:39:07;8.85;;;3.63;;
37657;SDS011;23500;53.268;8.308;2023-09-18T16:41:33;10.00;;;3.80;;
37657;SDS011;23500;53.268;8.308;2023-09-18T16:43:59;9.07;;;3.83;;
37657;SDS011;23500;53.268;8.308;2023-09-18T16:46:27;11.05;;;4.32;;
37657;SDS011;23500;53.268;8.308;2023-09-18T16:48:53;9.48;;;3.88;;
37657;SDS011;23500;53.268;8.308;2023-09-18T16:51:19;8.25;;;3.60;;
37657;SDS011;23500;53.268;8.308;2023-09-18T16:53:45;10.68;;;3.97;;
37657;SDS011;23500;53.268;8.308;2023-09-18T16:56:11;10.15;;;3.80;;
37657;SDS011;23500;53.268;8.308;2023-09-18T16:58:38;8.98;;;3.40;;
37657;SDS011;23500;53.268;8.308;2023-09-18T17:01:04;6.70;;;3.75;;
37657;SDS011;23500;53.268;8.308;2023-09-18T17:03:34;9.45;;;3.78;;
37657;SDS011;23500;53.268;8.308;2023-09-18T17:05:59;9.45;;;3.83;;
37657;SDS011;23500;53.268;8.308;2023-09-18T17:08:25;7.88;;;3.70;;
37657;SDS011;23500;53.268;8.308;2023-09-18T17:10:51;10.45;;;4.30;;
37657;SDS011;23500;53.268;8.308;2023-09-18T17:13:17;9.50;;;3.75;;
37657;SDS011;23500;53.268;8.308;2023-09-18T17:15:42;9.77;;;3.80;;
37657;SDS011;23500;53.268;8.308;2023-09-18T17:18:08;7.85;;;3.45;;
37657;SDS011;23500;53.268;8.308;2023-09-18T17:20:36;7.93;;;2.95;;
37657;SDS011;23500;53.268;8.308;2023-09-18T17:23:03;9.48;;;3.92;;
37657;SDS011;23500;53.268;8.308;2023-09-18T17:25:29;7.55;;;3.38;;
37657;SDS011;23500;53.268;8.308;2023-09-18T17:27:54;11.38;;;4.25;;
37657;SDS011;23500;53.268;8.308;2023-09-18T17:30:21;11.40;;;4.13;;
37657;SDS011;23500;53.268;8.308;2023-09-18T17:32:49;9.93;;;4.13;;
37657;SDS011;23500;53.268;8.308;2023-09-18T17:35:15;7.90;;;3.88;;
37657;SDS011;23500;53.268;8.308;2023-09-18T17:37:40;6.18;;;3.35;;
37657;SDS011;23500;53.268;8.308;2023-09-18T17:40:06;7.88;;;3.47;;
37657;SDS011;23500;53.268;8.308;2023-09-18T17:42:33;7.00;;;3.30;;
37657;SDS011;23500;53.268;8.308;2023-09-18T17:44:59;11.63;;;3.40;;
37657;SDS011;23500;53.268;8.308;2023-09-18T17:47:24;8.70;;;3.60;;
37657;SDS011;23500;53.268;8.308;2023-09-18T17:49:50;10.70;;;3.70;;
37657;SDS011;23500;53.268;8.308;2023-09-18T17:52:16;10.02;;;4.28;;
37657;SDS011;23500;53.268;8.308;2023-09-18T17:54:42;7.18;;;3.85;;
37657;SDS011;23500;53.268;8.308;2023-09-18T17:57:07;11.25;;;3.90;;
37657;SDS011;23500;53.268;8.308;2023-09-18T17:59:33;7.45;;;3.70;;
37657;SDS011;23500;53.268;8.308;2023-09-18T18:02:00;8.93;;;3.95;;
37657;SDS011;23500;53.268;8.308;2023-09-18T18:04:27;10.13;;;3.83;;
37657;SDS011;23500;53.268;8.308;2023-09-18T18:06:53;7.20;;;3.25;;
37657;SDS011;23500;53.268;8.308;2023-09-18T18:09:19;7.00;;;3.67;;
37657;SDS011;23500;53.268;8.308;2023-09-18T18:11:45;7.40;;;3.40;;
37657;SDS011;23500;53.268;8.308;2023-09-18T18:14:11;7.70;;;3.60;;
37657;SDS011;23500;53.268;8.308;2023-09-18T18:16:38;7.07;;;3.60;;
37657;SDS011;23500;53.268;8.308;2023-09-18T18:19:04;9.32;;;3.80;;
37657;SDS011;23500;53.268;8.308;2023-09-18T18:21:30;7.25;;;3.65;;
37657;SDS011;23500;53.268;8.308;2023-09-18T18:23:59;9.93;;;3.70;;